Time;durP1;ratioP1;P1;durP2;ratioP2;P2;SDS_P1;SDS_P2;PMS_P1;PMS_P2;Temp;Humidity;BMP_temperature;BMP_pressure;BME280_temperature;BME280_humidity;BME280_pressure;Samples;Min_cycle;Max_cycle;Signal;HPM_P1;HPM_P2
2022/03/09 00:02:09;;;;;;;0.20;0.20;;;;;;;4.19;47.17;100484.00;5035367;28;20025;-72
2022/03/09 00:04:34;;;;;;;0.20;0.20;;;;;;;4.14;47.75;100482.16;5035251;28;20039;-72
2022/03/09 00:07:03;;;;;;;0.20;0.20;;;;;;;4.23;47.48;100489.69;5035293;28;20387;-72
2022/03/09 00:09:30;;;;;;;0.20;0.20;;;;;;;4.17;46.52;100475.25;5053318;28;20547;-73
2022/03/09 00:11:56;;;;;;;0.20;0.20;;;;;;;4.17;47.75;100481.56;5052803;28;20029;-73
2022/03/09 00:14:21;;;;;;;0.20;0.20;;;;;;;4.02;47.69;100451.63;5035489;28;20029;-72
2022/03/09 00:16:50;;;;;;;0.20;0.20;;;;;;;4.03;47.50;100474.47;5034894;28;20024;-72
2022/03/09 00:19:16;;;;;;;0.20;0.20;;;;;;;4.01;48.69;100483.06;5052995;28;20037;-73
2022/03/09 00:21:42;;;;;;;0.20;0.20;;;;;;;3.97;48.06;100481.22;4986942;28;1393151;-73
2022/03/09 00:24:07;;;;;;;0.20;0.20;;;;;;;4.07;47.94;100479.03;5035625;28;20068;-73
2022/03/09 00:26:33;;;;;;;0.20;0.20;;;;;;;4.10;46.76;100480.34;5036767;28;20132;-73
2022/03/09 00:28:58;;;;;;;0.20;0.20;;;;;;;4.15;45.32;100475.53;5039761;28;20368;-72
2022/03/09 00:31:24;;;;;;;0.20;0.20;;;;;;;4.17;45.29;100486.25;5039605;28;20029;-72
2022/03/09 00:33:50;;;;;;;0.20;0.20;;;;;;;4.29;44.53;100477.41;5039650;28;20024;-73
2022/03/09 00:36:15;;;;;;;0.20;0.20;;;;;;;4.27;44.61;100475.00;5039735;28;20044;-72
2022/03/09 00:38:41;;;;;;;0.20;0.20;;;;;;;4.29;44.61;100471.91;5057980;28;20060;-72
2022/03/09 00:41:06;;;;;;;0.20;0.20;;;;;;;4.28;44.12;100473.84;5057426;28;20108;-72
2022/03/09 00:43:32;;;;;;;0.20;0.20;;;;;;;4.28;44.22;100464.78;5039458;28;20068;-73
2022/03/09 00:45:57;;;;;;;0.20;0.20;;;;;;;4.37;43.80;100471.97;5039625;28;20036;-72
2022/03/09 00:48:23;;;;;;;0.20;0.20;;;;;;;4.29;43.99;100466.41;5039594;28;20119;-72
2022/03/09 00:50:48;;;;;;;0.20;0.20;;;;;;;4.32;44.27;100476.81;5039581;28;20032;-73
2022/03/09 00:53:14;;;;;;;0.30;0.30;;;;;;;4.30;43.79;100468.03;5039522;28;20387;-72
2022/03/09 00:55:40;;;;;;;0.20;0.20;;;;;;;4.32;43.79;100476.81;5056824;28;20060;-72
2022/03/09 00:58:06;;;;;;;0.20;0.20;;;;;;;4.32;43.50;100471.31;5039140;28;20037;-72
2022/03/09 01:00:31;;;;;;;0.20;0.20;;;;;;;4.09;43.26;100418.97;5057009;28;20033;-72
2022/03/09 01:02:57;;;;;;;0.20;0.20;;;;;;;4.29;43.41;100452.63;5057187;28;20029;-72
2022/03/09 01:05:25;;;;;;;0.20;0.20;;;;;;;4.31;43.71;100458.63;5056916;28;20033;-72
2022/03/09 01:07:51;;;;;;;0.20;0.20;;;;;;;4.43;43.17;100454.19;5038978;28;20037;-72
2022/03/09 01:10:17;;;;;;;0.20;0.20;;;;;;;4.45;42.19;100448.34;5039347;28;20130;-73
2022/03/09 01:12:42;;;;;;;0.20;0.20;;;;;;;4.53;42.21;100455.03;5038877;28;20033;-72
2022/03/09 01:15:08;;;;;;;0.20;0.20;;;;;;;4.60;42.16;100460.94;5038494;28;20133;-72
2022/03/09 01:17:34;;;;;;;0.20;0.20;;;;;;;4.56;42.23;100446.97;5038718;28;20037;-72
2022/03/09 01:20:00;;;;;;;0.20;0.20;;;;;;;4.53;42.43;100444.00;5056628;28;20033;-72
2022/03/09 01:22:26;;;;;;;0.20;0.20;;;;;;;4.55;42.60;100447.28;5023338;28;20484;-72
2022/03/09 01:24:52;;;;;;;0.20;0.20;;;;;;;4.57;42.42;100456.84;5022370;28;20033;-72
2022/03/09 01:27:17;;;;;;;0.30;0.30;;;;;;;4.51;42.56;100457.31;5056185;28;20025;-73
2022/03/09 01:29:43;;;;;;;0.20;0.20;;;;;;;4.50;42.98;100439.97;5038521;28;20147;-73
2022/03/09 01:32:09;;;;;;;0.20;0.20;;;;;;;4.37;42.65;100436.16;5038509;28;20040;-73
2022/03/09 01:34:34;;;;;;;0.20;0.20;;;;;;;4.41;42.56;100425.31;5038766;28;20079;-73
2022/03/09 01:37:00;;;;;;;0.20;0.20;;;;;;;4.63;41.67;100439.03;5056762;28;20364;-73
2022/03/09 01:39:26;;;;;;;0.20;0.20;;;;;;;4.65;41.89;100463.56;5054678;28;20040;-73
2022/03/09 01:41:51;;;;;;;0.20;0.20;;;;;;;4.69;41.45;100437.78;5038294;28;20040;-73
2022/03/09 01:44:20;;;;;;;0.20;0.20;;;;;;;4.68;42.13;100452.69;5038525;28;20036;-73
2022/03/09 01:46:48;;;;;;;0.20;0.20;;;;;;;4.65;42.13;100439.56;5021948;28;20033;-73
2022/03/09 01:49:14;;;;;;;0.20;0.20;;;;;;;4.73;42.08;100447.03;5038470;28;20116;-73
2022/03/09 01:51:45;;;;;;;0.20;0.20;;;;;;;4.70;42.50;100461.47;5038140;28;20036;-73
2022/03/09 01:54:11;;;;;;;0.20;0.20;;;;;;;4.72;42.18;100450.94;5038122;28;20541;-72
2022/03/09 01:56:37;;;;;;;0.20;0.20;;;;;;;4.77;41.74;100443.66;5055703;28;20029;-72
2022/03/09 01:59:04;;;;;;;0.20;0.20;;;;;;;4.81;42.66;100450.97;5038512;28;20092;-73
2022/03/09 02:01:30;;;;;;;0.20;0.20;;;;;;;4.75;42.98;100445.94;5038770;28;20031;-73
2022/03/09 02:03:56;;;;;;;0.20;0.20;;;;;;;4.71;43.15;100454.81;5037898;28;20124;-73
2022/03/09 02:06:22;;;;;;;0.20;0.20;;;;;;;4.71;43.03;100456.75;5038999;28;20041;-73
2022/03/09 02:11:34;;;;;;;0.20;0.20;;;;;;;4.48;43.11;100409.16;5055664;28;20071;-72
2022/03/09 02:14:00;;;;;;;0.20;0.20;;;;;;;4.70;42.85;100444.13;5037805;28;20119;-73
2022/03/09 02:16:26;;;;;;;0.20;0.20;;;;;;;4.69;43.04;100437.00;5037695;28;20025;-73
2022/03/09 02:18:52;;;;;;;0.20;0.20;;;;;;;4.69;43.33;100437.78;5055310;28;20079;-73
2022/03/09 02:21:20;;;;;;;0.20;0.20;;;;;;;4.68;42.95;100436.16;5017845;28;20053;-73
2022/03/09 02:23:45;;;;;;;0.20;0.20;;;;;;;4.69;43.08;100448.81;5035846;28;20025;-74
2022/03/09 02:26:11;;;;;;;0.20;0.20;;;;;;;4.37;43.57;100413.31;5036318;28;20184;-74
2022/03/09 02:28:38;;;;;;;0.20;0.20;;;;;;;4.62;43.34;100453.97;5018646;28;20456;-73
2022/03/09 02:31:04;;;;;;;0.20;0.20;;;;;;;4.56;43.59;100449.72;5018450;28;20034;-73
2022/03/09 02:33:30;;;;;;;0.20;0.20;;;;;;;4.58;43.64;100447.47;5017570;28;20033;-73
2022/03/09 02:35:55;;;;;;;0.30;0.30;;;;;;;4.61;44.07;100440.50;5034973;28;20396;-73
2022/03/09 02:38:23;;;;;;;0.20;0.20;;;;;;;4.61;43.61;100435.00;5018028;28;20111;-73
2022/03/09 02:40:49;;;;;;;0.20;0.20;;;;;;;4.62;43.78;100440.16;5017377;28;20030;-73
2022/03/09 02:43:17;;;;;;;0.20;0.20;;;;;;;4.65;43.76;100434.03;5017941;28;20175;-73
2022/03/09 02:45:43;;;;;;;0.20;0.20;;;;;;;4.60;43.82;100445.19;5017354;28;20033;-73
2022/03/09 02:48:08;;;;;;;0.20;0.20;;;;;;;4.62;44.24;100445.69;5017245;28;20036;-73
2022/03/09 02:50:34;;;;;;;0.20;0.20;;;;;;;4.49;44.10;100443.03;5016642;28;20116;-73
2022/03/09 02:52:59;;;;;;;0.20;0.20;;;;;;;4.54;43.68;100435.44;5017763;28;20384;-73
2022/03/09 02:55:25;;;;;;;0.20;0.20;;;;;;;4.64;43.88;100437.94;5034606;28;20395;-73
2022/03/09 02:57:51;;;;;;;0.20;0.20;;;;;;;4.66;43.68;100443.94;5017651;28;20043;-73
2022/03/09 03:00:16;;;;;;;0.20;0.20;;;;;;;4.62;43.59;100442.13;5017325;28;20446;-73
2022/03/09 03:02:42;;;;;;;0.20;0.20;;;;;;;4.63;43.78;100428.00;5017442;28;20049;-73
2022/03/09 03:05:08;;;;;;;0.20;0.20;;;;;;;4.60;44.40;100428.66;5017270;28;20025;-73
2022/03/09 03:07:34;;;;;;;0.30;0.30;;;;;;;4.78;42.96;100429.53;5034714;28;20037;-73
2022/03/09 03:10:00;;;;;;;0.20;0.20;;;;;;;4.69;43.61;100440.56;5017268;28;20028;-73
2022/03/09 03:12:26;;;;;;;0.20;0.20;;;;;;;4.72;44.00;100430.81;5017461;28;20029;-73
2022/03/09 03:14:51;;;;;;;0.20;0.20;;;;;;;4.71;43.64;100423.69;5016630;28;20526;-73
2022/03/09 03:17:17;;;;;;;0.20;0.20;;;;;;;4.73;43.55;100427.75;5017367;28;20172;-73
2022/03/09 03:19:42;;;;;;;0.20;0.20;;;;;;;4.76;43.51;100425.50;5016769;28;20037;-73
2022/03/09 03:22:08;;;;;;;0.20;0.20;;;;;;;4.69;43.89;100437.00;5028970;28;20140;-73
2022/03/09 03:24:33;;;;;;;0.20;0.20;;;;;;;4.65;44.10;100425.78;5036646;28;20040;-73
2022/03/09 03:26:59;;;;;;;0.20;0.20;;;;;;;4.64;43.33;100429.66;5054517;28;20040;-73
2022/03/09 03:29:24;;;;;;;0.20;0.20;;;;;;;4.65;43.63;100430.47;5035957;28;20039;-73
2022/03/09 03:31:50;;;;;;;0.20;0.20;;;;;;;4.70;43.56;100438.59;5036891;28;20083;-73
2022/03/09 03:34:16;;;;;;;0.20;0.20;;;;;;;4.60;43.71;100423.16;5053759;28;20390;-73
2022/03/09 03:36:42;;;;;;;0.28;0.28;;;;;;;4.71;43.13;100435.53;5053842;28;20082;-73
2022/03/09 03:39:08;;;;;;;0.20;0.20;;;;;;;4.65;43.11;100425.78;5036763;28;20029;-73
2022/03/09 03:41:34;;;;;;;0.20;0.20;;;;;;;4.63;42.67;100427.19;5020361;28;20059;-73
2022/03/09 03:43:59;;;;;;;0.20;0.20;;;;;;;4.85;43.14;100451.16;5053671;28;20505;-73
2022/03/09 03:46:25;;;;;;;0.20;0.20;;;;;;;4.86;43.30;100459.09;5036059;28;20049;-73
2022/03/09 03:48:50;;;;;;;0.20;0.20;;;;;;;4.82;42.72;100447.09;5035892;28;20075;-73
2022/03/09 03:51:16;;;;;;;0.20;0.20;;;;;;;4.88;43.12;100458.78;5036521;28;20035;-73
2022/03/09 03:53:41;;;;;;;0.20;0.20;;;;;;;4.64;43.20;100415.88;5036030;28;20052;-73
2022/03/09 03:56:07;;;;;;;0.20;0.20;;;;;;;4.82;43.48;100454.53;5035903;28;20055;-74
2022/03/09 03:58:33;;;;;;;0.20;0.20;;;;;;;4.83;43.43;100458.91;5053816;28;20024;-73
2022/03/09 04:00:58;;;;;;;0.20;0.20;;;;;;;4.89;43.86;100457.66;5054247;28;20029;-73
2022/03/09 04:03:24;;;;;;;0.20;0.20;;;;;;;4.87;43.30;100457.16;5036198;28;20087;-73
2022/03/09 04:05:49;;;;;;;0.20;0.20;;;;;;;4.86;43.69;100461.06;5035834;28;20053;-73
2022/03/09 04:08:15;;;;;;;0.20;0.20;;;;;;;4.81;43.91;100450.16;5036085;28;20040;-73
2022/03/09 04:10:40;;;;;;;0.20;0.20;;;;;;;4.88;44.08;100456.03;5035764;28;20029;-73
2022/03/09 04:13:06;;;;;;;0.20;0.20;;;;;;;4.70;43.73;100439.41;5035705;28;20112;-73
2022/03/09 04:15:35;;;;;;;0.20;0.20;;;;;;;4.77;44.22;100454.69;5036345;28;20024;-71
2022/03/09 04:18:00;;;;;;;0.20;0.20;;;;;;;4.79;44.31;100458.72;5035746;28;20116;-73
2022/03/09 04:20:26;;;;;;;0.20;0.20;;;;;;;4.83;44.32;100456.16;5036478;28;20068;-73
2022/03/09 04:22:54;;;;;;;0.20;0.20;;;;;;;4.75;44.35;100459.72;5035163;28;20049;-74
2022/03/09 04:25:20;;;;;;;0.20;0.20;;;;;;;4.82;43.71;100451.78;5035606;28;20029;-73
2022/03/09 04:27:45;;;;;;;0.20;0.20;;;;;;;4.66;43.17;100430.16;5035571;28;20067;-73
2022/03/09 04:30:11;;;;;;;0.20;0.20;;;;;;;4.81;43.60;100456.50;5036116;28;20029;-73
2022/03/09 04:32:37;;;;;;;0.20;0.20;;;;;;;4.79;43.62;100447.72;5035826;28;20459;-73
2022/03/09 04:35:05;;;;;;;0.20;0.20;;;;;;;4.90;43.74;100467.53;5053696;28;20461;-73
2022/03/09 04:37:31;;;;;;;0.20;0.20;;;;;;;4.85;43.49;100468.50;5053649;28;20091;-73
2022/03/09 04:40:01;;;;;;;0.20;0.20;;;;;;;4.85;43.65;100456.69;5053437;28;20040;-73
2022/03/09 04:42:27;;;;;;;0.20;0.20;;;;;;;4.70;43.04;100444.13;5052155;28;20040;-73
2022/03/09 04:44:53;;;;;;;0.20;0.20;;;;;;;4.74;43.68;100458.91;5035812;28;20033;-73
2022/03/09 04:47:22;;;;;;;0.20;0.20;;;;;;;4.87;42.97;100459.91;5035475;28;20037;-73
2022/03/09 04:49:50;;;;;;;0.20;0.20;;;;;;;4.88;43.43;100464.28;5036149;28;20387;-73
2022/03/09 04:52:16;;;;;;;0.20;0.20;;;;;;;4.85;43.15;100467.72;5052941;28;20021;-73
2022/03/09 04:54:42;;;;;;;0.20;0.20;;;;;;;4.69;42.98;100443.31;5035480;28;20032;-73
2022/03/09 04:57:07;;;;;;;0.20;0.20;;;;;;;4.90;42.55;100435.28;5052955;28;20159;-73
2022/03/09 04:59:33;;;;;;;0.20;0.20;;;;;;;4.95;42.17;100461.88;5036097;28;20379;-73
2022/03/09 05:01:58;;;;;;;0.20;0.20;;;;;;;5.02;42.23;100461.44;5053496;28;20374;-73
2022/03/09 05:04:24;;;;;;;0.20;0.20;;;;;;;4.94;42.15;100465.78;5035305;28;20467;-73
2022/03/09 05:06:50;;;;;;;0.20;0.20;;;;;;;4.98;42.30;100461.25;5035308;28;20025;-73
2022/03/09 05:09:15;;;;;;;0.20;0.20;;;;;;;5.03;42.35;100472.16;5035765;28;20036;-73
2022/03/09 05:11:41;;;;;;;0.20;0.20;;;;;;;5.01;41.15;100466.16;5035401;28;20120;-73
2022/03/09 05:14:06;;;;;;;0.20;0.20;;;;;;;4.95;40.30;100448.09;5056646;28;20086;-73
2022/03/09 05:16:32;;;;;;;0.20;0.20;;;;;;;4.96;40.58;100463.53;5039464;28;20033;-73
2022/03/09 05:18:57;;;;;;;0.20;0.20;;;;;;;4.90;40.92;100451.84;5039830;28;20091;-74
2022/03/09 05:21:23;;;;;;;0.20;0.20;;;;;;;5.05;41.21;100472.63;5051018;28;20045;-73
2022/03/09 05:23:48;;;;;;;0.20;0.20;;;;;;;4.99;40.55;100469.22;5038819;28;20027;-73
2022/03/09 05:26:14;;;;;;;0.20;0.20;;;;;;;4.87;40.93;100435.09;5055259;28;20068;-73
2022/03/09 05:28:39;;;;;;;0.20;0.20;;;;;;;5.02;40.79;100478.81;5039162;28;20036;-74
2022/03/09 05:31:05;;;;;;;0.20;0.20;;;;;;;4.93;41.07;100453.13;5056518;28;20479;-73
2022/03/09 05:33:31;;;;;;;0.20;0.20;;;;;;;4.94;40.91;100436.25;5038633;28;20361;-73
2022/03/09 05:35:56;;;;;;;0.20;0.20;;;;;;;4.95;41.06;100459.97;5038541;28;20071;-73
2022/03/09 05:38:22;;;;;;;0.20;0.20;;;;;;;5.03;41.56;100466.63;5038512;28;20025;-73
2022/03/09 05:40:47;;;;;;;0.20;0.20;;;;;;;4.88;41.39;100462.34;5056000;28;20037;-73
2022/03/09 05:43:13;;;;;;;0.20;0.20;;;;;;;5.11;41.52;100487.91;5056307;28;20036;-74
2022/03/09 05:45:38;;;;;;;0.20;0.20;;;;;;;5.10;41.75;100485.47;5038250;28;20035;-73
2022/03/09 05:48:04;;;;;;;0.22;0.22;;;;;;;5.09;41.93;100484.66;5056503;28;20036;-74
2022/03/09 05:50:30;;;;;;;0.20;0.20;;;;;;;4.89;42.09;100471.44;5056046;28;20061;-73
2022/03/09 05:52:56;;;;;;;0.20;0.20;;;;;;;4.80;42.47;100481.63;5038209;28;20458;-74
2022/03/09 05:55:21;;;;;;;0.20;0.20;;;;;;;4.86;42.71;100492.19;5038110;28;20074;-73
2022/03/09 05:57:47;;;;;;;0.20;0.20;;;;;;;4.93;42.27;100500.81;5038018;28;20116;-73
2022/03/09 06:00:13;;;;;;;0.20;0.20;;;;;;;5.03;42.58;100510.75;5055852;28;20029;-73
2022/03/09 06:02:39;;;;;;;0.20;0.20;;;;;;;5.04;41.97;100493.06;5038465;28;20075;-74
2022/03/09 06:05:05;;;;;;;0.20;0.20;;;;;;;5.19;41.13;100506.44;5055231;28;20436;-74
2022/03/09 06:07:32;;;;;;;0.20;0.20;;;;;;;5.06;41.03;100495.50;5054438;28;20399;-74
2022/03/09 06:09:58;;;;;;;0.20;0.20;;;;;;;5.33;40.73;100513.81;5055387;28;20021;-73
2022/03/09 06:12:23;;;;;;;0.20;0.20;;;;;;;5.40;40.27;100526.00;5037794;28;20033;-73
2022/03/09 06:14:49;;;;;;;0.20;0.20;;;;;;;5.40;40.94;100505.88;5037854;28;20116;-73
2022/03/09 06:17:14;;;;;;;0.20;0.20;;;;;;;5.42;41.30;100504.41;5055756;28;20163;-73
2022/03/09 06:19:40;;;;;;;0.20;0.20;;;;;;;5.47;40.98;100511.72;5038445;28;20039;-73
2022/03/09 06:22:05;;;;;;;0.20;0.20;;;;;;;5.49;41.50;100515.00;5037586;28;20049;-73
2022/03/09 06:24:31;;;;;;;0.20;0.20;;;;;;;5.55;41.45;100508.19;5037057;28;20075;-73
2022/03/09 06:26:57;;;;;;;0.20;0.20;;;;;;;5.60;40.34;100532.88;5055582;28;20056;-73
2022/03/09 06:29:22;;;;;;;0.20;0.20;;;;;;;5.64;41.10;100517.28;5037774;28;20029;-73
2022/03/09 06:31:48;;;;;;;0.20;0.20;;;;;;;5.70;40.36;100520.69;5038010;28;20446;-72
2022/03/09 06:34:14;;;;;;;0.20;0.20;;;;;;;5.69;40.53;100517.13;5037698;28;20468;-72
2022/03/09 06:36:43;;;;;;;0.20;0.20;;;;;;;5.63;40.48;100509.31;5055070;28;20064;-73
2022/03/09 06:39:13;;;;;;;0.20;0.20;;;;;;;5.71;40.01;100523.16;5037675;28;20064;-73
2022/03/09 06:41:40;;;;;;;0.20;0.20;;;;;;;5.66;40.10;100514.22;5037921;28;20071;-73
2022/03/09 06:44:06;;;;;;;0.20;0.20;;;;;;;5.88;40.26;100518.78;5037303;28;20027;-73
2022/03/09 06:46:31;;;;;;;0.20;0.20;;;;;;;5.88;39.59;100527.06;5037256;28;20064;-73
2022/03/09 06:48:57;;;;;;;0.20;0.20;;;;;;;6.12;38.88;100526.63;5037705;28;20021;-73
2022/03/09 06:51:22;;;;;;;0.20;0.20;;;;;;;6.88;37.54;100515.00;5037804;28;20435;-73
2022/03/09 06:53:48;;;;;;;0.20;0.20;;;;;;;6.52;38.67;100530.03;5037438;28;20490;-73
2022/03/09 06:56:15;;;;;;;0.20;0.20;;;;;;;6.91;37.98;100503.28;5055300;28;20100;-73
2022/03/09 06:58:40;;;;;;;0.20;0.20;;;;;;;7.14;38.42;100518.50;5037019;28;20031;-73
2022/03/09 07:01:06;;;;;;;0.20;0.20;;;;;;;7.48;38.37;100539.66;5037500;28;20029;-71
2022/03/09 07:03:31;;;;;;;0.20;0.20;;;;;;;7.94;37.68;100534.38;5037261;28;20073;-72
2022/03/09 07:05:57;;;;;;;0.20;0.20;;;;;;;8.45;36.98;100546.22;5053545;28;20100;-72
2022/03/09 07:08:22;;;;;;;0.20;0.20;;;;;;;8.48;36.95;100540.81;5036720;28;20037;-72
2022/03/09 07:10:50;;;;;;;0.20;0.20;;;;;;;8.61;36.75;100564.66;5037162;28;20028;-72
2022/03/09 07:13:16;;;;;;;0.20;0.20;;;;;;;8.26;37.15;100560.53;5036745;28;20115;-73
2022/03/09 07:15:41;;;;;;;0.20;0.20;;;;;;;7.88;38.06;100570.56;5054953;28;20104;-73
2022/03/09 07:18:07;;;;;;;0.20;0.20;;;;;;;7.33;38.70;100587.28;5036376;28;20486;-73
2022/03/09 07:20:33;;;;;;;0.20;0.20;;;;;;;6.91;39.90;100578.75;5036537;28;20054;-73
2022/03/09 07:22:59;;;;;;;0.20;0.20;;;;;;;6.67;40.90;100584.84;5054184;28;20056;-72
2022/03/09 07:25:45;;;;;;;0.20;0.20;;;;;;;6.51;41.48;100601.09;5036229;28;20036;-74
2022/03/09 07:28:11;;;;;;;0.20;0.20;;;;;;;6.49;42.14;100605.31;5053977;28;20036;-73
2022/03/09 07:30:38;;;;;;;0.20;0.20;;;;;;;6.39;42.00;100606.47;5054181;28;20025;-73
2022/03/09 07:33:03;;;;;;;0.20;0.20;;;;;;;6.22;42.21;100587.91;5036834;28;20025;-72
2022/03/09 07:35:29;;;;;;;0.20;0.20;;;;;;;6.20;42.26;100620.59;5053885;28;20025;-72
2022/03/09 07:37:54;;;;;;;0.20;0.20;;;;;;;6.21;41.81;100589.06;5054239;28;20068;-73
2022/03/09 07:40:21;;;;;;;0.20;0.20;;;;;;;6.40;42.40;100619.16;5054081;28;20032;-72
2022/03/09 07:42:47;;;;;;;0.20;0.20;;;;;;;6.49;41.86;100632.97;5053937;28;20463;-72
2022/03/09 07:45:12;;;;;;;0.20;0.20;;;;;;;6.59;41.33;100634.59;5036279;28;20124;-73
2022/03/09 07:47:38;;;;;;;0.20;0.20;;;;;;;6.64;41.32;100623.38;5036406;28;20033;-73
2022/03/09 07:50:05;;;;;;;0.20;0.20;;;;;;;6.69;42.11;100634.28;5036662;28;20426;-72
2022/03/09 07:52:31;;;;;;;0.20;0.20;;;;;;;6.74;41.13;100626.63;5036912;28;20052;-73
2022/03/09 07:54:57;;;;;;;0.20;0.20;;;;;;;6.80;42.11;100630.03;5036263;28;20479;-73
2022/03/09 07:57:22;;;;;;;0.20;0.20;;;;;;;6.80;41.82;100635.56;5053864;28;20025;-73
2022/03/09 07:59:48;;;;;;;0.20;0.20;;;;;;;6.69;41.57;100632.31;5036151;28;20040;-73
2022/03/09 08:02:13;;;;;;;0.20;0.20;;;;;;;6.72;41.50;100645.50;5035889;28;20036;-72
2022/03/09 08:04:39;;;;;;;0.20;0.20;;;;;;;6.67;41.81;100642.91;5054327;28;20029;-73
2022/03/09 08:07:04;;;;;;;0.20;0.20;;;;;;;6.56;42.12;100652.66;5036804;28;20472;-73
2022/03/09 08:09:30;;;;;;;0.20;0.20;;;;;;;6.59;42.27;100660.28;5036073;28;20059;-73
2022/03/09 08:11:55;;;;;;;0.20;0.20;;;;;;;6.62;42.63;100659.66;5053766;28;20044;-73
2022/03/09 08:14:21;;;;;;;0.20;0.20;;;;;;;6.61;41.45;100649.75;5036658;28;20032;-73
2022/03/09 08:16:48;;;;;;;0.20;0.20;;;;;;;6.79;42.14;100645.00;5036495;28;20491;-74
2022/03/09 08:19:14;;;;;;;0.20;0.20;;;;;;;6.86;40.79;100650.03;5036982;28;20047;-73
2022/03/09 08:21:39;;;;;;;0.20;0.20;;;;;;;6.91;41.25;100655.41;5036569;28;20484;-73
2022/03/09 08:24:06;;;;;;;0.20;0.20;;;;;;;6.66;39.18;100668.09;5053717;28;20514;-73
2022/03/09 08:26:32;;;;;;;0.20;0.20;;;;;;;6.71;39.78;100656.88;5053545;28;20025;-73
2022/03/09 08:28:57;;;;;;;0.20;0.20;;;;;;;6.77;39.88;100650.06;5035494;28;20121;-73
2022/03/09 08:31:24;;;;;;;0.22;0.22;;;;;;;6.80;40.03;100652.16;5035923;28;20036;-73
2022/03/09 08:33:49;;;;;;;0.20;0.20;;;;;;;6.87;39.20;100663.56;5053515;28;20391;-73
2022/03/09 08:36:15;;;;;;;0.20;0.20;;;;;;;6.70;39.31;100655.25;5035947;28;20033;-73
2022/03/09 08:38:41;;;;;;;0.20;0.20;;;;;;;6.77;39.71;100661.13;5053386;28;20112;-73
2022/03/09 08:41:07;;;;;;;0.20;0.20;;;;;;;6.93;39.48;100669.75;5035789;28;20467;-73
2022/03/09 08:43:32;;;;;;;0.20;0.20;;;;;;;6.88;39.25;100659.66;5035468;28;20041;-73
2022/03/09 08:45:58;;;;;;;0.20;0.20;;;;;;;6.88;39.08;100669.91;5035521;28;20029;-73
2022/03/09 08:48:26;;;;;;;0.20;0.20;;;;;;;6.93;39.58;100659.50;5037206;28;20025;-73
2022/03/09 08:50:53;;;;;;;0.20;0.20;;;;;;;6.93;39.44;100666.97;5057242;28;20033;-73
2022/03/09 08:53:20;;;;;;;0.20;0.20;;;;;;;6.92;39.29;100681.94;5039902;28;20379;-73
2022/03/09 08:55:46;;;;;;;0.20;0.20;;;;;;;6.80;39.68;100663.22;5039608;28;20414;-72
2022/03/09 08:58:11;;;;;;;0.20;0.20;;;;;;;6.85;39.56;100665.03;5039138;28;20082;-72
2022/03/09 09:00:37;;;;;;;0.20;0.20;;;;;;;6.85;39.78;100676.09;5039610;28;20066;-73
2022/03/09 09:03:03;;;;;;;0.20;0.20;;;;;;;6.79;40.52;100648.59;5039979;28;20111;-72
2022/03/09 09:05:28;;;;;;;0.20;0.20;;;;;;;6.81;39.71;100668.44;5039224;28;20036;-72
2022/03/09 09:07:54;;;;;;;0.20;0.20;;;;;;;6.79;40.37;100667.13;5039720;28;20021;-73
2022/03/09 09:10:20;;;;;;;0.20;0.20;;;;;;;6.82;40.91;100672.03;5039554;28;20464;-72
2022/03/09 09:12:46;;;;;;;0.20;0.20;;;;;;;6.83;39.67;100684.72;5039057;28;20556;-73
2022/03/09 09:15:12;;;;;;;0.20;0.20;;;;;;;6.89;38.54;100666.81;5039635;28;20033;-73
2022/03/09 09:17:37;;;;;;;0.20;0.20;;;;;;;7.09;38.25;100674.44;5057099;28;20467;-73
2022/03/09 09:20:04;;;;;;;0.20;0.20;;;;;;;7.18;37.79;100671.66;5039317;28;20037;-74
2022/03/09 09:22:29;;;;;;;0.20;0.20;;;;;;;7.15;38.04;100672.31;5008523;28;20057;-73
2022/03/09 09:24:55;;;;;;;0.20;0.20;;;;;;;7.22;38.05;100647.72;5056905;28;20056;-73
2022/03/09 09:27:20;;;;;;;0.20;0.20;;;;;;;7.31;39.09;100661.53;5056621;28;20116;-72
2022/03/09 09:29:49;;;;;;;0.20;0.20;;;;;;;7.48;38.55;100649.59;5038814;28;20108;-72
2022/03/09 09:32:16;;;;;;;0.20;0.20;;;;;;;7.61;38.72;100660.47;5038989;28;20033;-73
2022/03/09 09:34:41;;;;;;;0.20;0.20;;;;;;;7.73;37.20;100657.00;5038682;28;20059;-74
2022/03/09 09:37:07;;;;;;;0.20;0.20;;;;;;;8.30;34.59;100651.00;5039098;28;20032;-73
2022/03/09 09:39:32;;;;;;;0.20;0.20;;;;;;;8.62;34.13;100640.34;5038477;28;20039;-74
2022/03/09 09:42:01;;;;;;;0.30;0.30;;;;;;;8.68;33.63;100644.53;5056319;28;20029;-73
2022/03/09 09:44:26;;;;;;;0.20;0.20;;;;;;;8.61;34.51;100624.88;5056042;28;20389;-73
2022/03/09 09:46:53;;;;;;;0.20;0.20;;;;;;;8.38;34.90;100655.72;5038471;28;20040;-73
2022/03/09 09:49:24;;;;;;;0.20;0.20;;;;;;;8.16;35.81;100647.69;5038761;28;20033;-73
2022/03/09 09:51:50;;;;;;;0.20;0.20;;;;;;;8.13;36.06;100637.25;5057483;28;20468;-72
2022/03/09 09:54:17;;;;;;;0.20;0.20;;;;;;;8.14;35.72;100631.34;5055731;28;20036;-73
2022/03/09 09:56:43;;;;;;;0.20;0.20;;;;;;;8.40;35.79;100647.84;5038221;28;20036;-72
2022/03/09 09:59:09;;;;;;;0.20;0.20;;;;;;;8.51;36.11;100636.38;5038122;28;20356;-73
2022/03/09 10:01:35;;;;;;;0.20;0.20;;;;;;;8.44;35.99;100648.00;5038625;28;20039;-72
2022/03/09 10:04:02;;;;;;;0.20;0.20;;;;;;;8.36;36.57;100646.94;5038638;28;20025;-73
2022/03/09 10:06:28;;;;;;;0.20;0.20;;;;;;;8.32;36.91;100636.81;5037941;28;20025;-73
2022/03/09 10:09:07;;;;;;;0.20;0.20;;;;;;;8.16;37.43;100641.31;5038154;28;20078;-73
2022/03/09 10:11:49;;;;;;;0.20;0.20;;;;;;;8.31;38.06;100644.31;5055683;28;20032;-73
2022/03/09 10:14:16;;;;;;;0.20;0.20;;;;;;;8.25;38.26;100639.28;5037870;28;20029;-73
2022/03/09 10:17:02;;;;;;;0.20;0.20;;;;;;;8.16;38.74;100641.31;5056004;28;20367;-73
2022/03/09 10:19:30;;;;;;;0.20;0.20;;;;;;;7.85;39.48;100643.25;5005415;28;20118;-72
2022/03/09 10:21:55;;;;;;;0.20;0.20;;;;;;;7.88;39.44;100642.59;5037316;28;20053;-72
2022/03/09 10:24:34;;;;;;;0.20;0.20;;;;;;;8.08;39.19;100641.00;5038287;28;20025;-72
2022/03/09 10:27:01;;;;;;;0.20;0.20;;;;;;;8.29;38.81;100635.50;5055529;28;20029;-73
2022/03/09 10:29:28;;;;;;;0.20;0.20;;;;;;;8.44;38.21;100633.31;5055485;28;20107;-73
2022/03/09 10:31:59;;;;;;;0.20;0.20;;;;;;;8.62;37.88;100638.38;5055647;28;20111;-73
2022/03/09 10:34:26;;;;;;;0.20;0.20;;;;;;;9.26;35.72;100623.25;5037832;28;20059;-73
2022/03/09 10:36:56;;;;;;;0.20;0.20;;;;;;;8.95;35.55;100642.34;5037787;28;20436;-73
2022/03/09 10:39:23;;;;;;;0.20;0.20;;;;;;;9.27;35.25;100626.84;5037675;28;20029;-73
2022/03/09 10:41:49;;;;;;;0.20;0.20;;;;;;;8.68;36.28;100636.22;5021113;28;20040;-73
2022/03/09 10:44:14;;;;;;;0.20;0.20;;;;;;;8.30;36.57;100636.31;5056031;28;20029;-73
2022/03/09 10:46:46;;;;;;;0.20;0.20;;;;;;;8.11;37.50;100631.22;5054929;28;20041;-73
2022/03/09 10:49:14;;;;;;;0.20;0.20;;;;;;;8.01;37.79;100620.53;5037196;28;20494;-73
2022/03/09 10:51:47;;;;;;;0.20;0.20;;;;;;;8.14;37.85;100622.22;5054971;28;20104;-73
2022/03/09 10:54:22;;;;;;;0.20;0.20;;;;;;;8.25;38.59;100628.19;5037063;28;20063;-73
2022/03/09 10:56:48;;;;;;;0.20;0.20;;;;;;;8.26;38.03;100621.53;5037091;28;20037;-73
2022/03/09 10:59:17;;;;;;;0.20;0.20;;;;;;;8.28;37.69;100622.81;5038100;28;20029;-72
2022/03/09 11:01:44;;;;;;;0.20;0.20;;;;;;;8.41;37.51;100620.94;5056118;28;20056;-73
2022/03/09 11:04:11;;;;;;;0.20;0.20;;;;;;;8.56;37.18;100612.00;5037184;28;20510;-74
2022/03/09 11:06:40;;;;;;;0.20;0.20;;;;;;;8.52;37.84;100613.03;5055092;28;20033;-72
2022/03/09 11:09:06;;;;;;;0.20;0.20;;;;;;;8.52;36.99;100615.78;5055043;28;20364;-72
2022/03/09 11:11:32;;;;;;;0.20;0.20;;;;;;;8.63;36.29;100617.03;5055022;28;20032;-73
2022/03/09 11:13:58;;;;;;;0.20;0.20;;;;;;;8.63;36.24;100612.28;5038848;28;20021;-73
2022/03/09 11:16:27;;;;;;;0.20;0.20;;;;;;;8.63;36.27;100617.03;5039920;28;20051;-74
2022/03/09 11:18:54;;;;;;;0.20;0.20;;;;;;;8.70;36.76;100611.75;5039681;28;20033;-74
2022/03/09 11:21:20;;;;;;;0.20;0.20;;;;;;;8.75;36.23;100605.19;5056917;28;20040;-74
2022/03/09 11:23:48;;;;;;;0.20;0.20;;;;;;;8.60;36.30;100623.25;5057505;28;20025;-73
2022/03/09 11:26:18;;;;;;;0.20;0.20;;;;;;;8.55;36.78;100618.72;5039102;28;20036;-73
2022/03/09 11:28:45;;;;;;;0.20;0.20;;;;;;;8.57;36.74;100607.28;5057870;28;20028;-74
2022/03/09 11:31:13;;;;;;;0.20;0.20;;;;;;;8.74;36.80;100611.88;5039086;28;20021;-73
2022/03/09 11:33:56;;;;;;;0.20;0.20;;;;;;;8.66;37.18;100619.91;5038853;28;20409;-74